Back to Top

Language: 

My Weather Underground Personal Weather Station Historical Data with Graphs...

Delerius Weather Station Historical Data
Daily Summary for October 31, 2017 Units:  Metric    English   Both
« Previous Day
Next Day »
Daily Weekly Monthly Yearly Custom
  High: Low: Average:
Temperature: 14.3 °C 7.6 °C 11.1 °C
Dew Point: 11.1 °C 6 °C 8.9 °C
Humidity: 95 % 80 % 87 %
Wind Speed: 17.7 km/h 0 km/h 4 km/h
Wind Gust: 29 km/h - -
Wind:- - WSW
Pressure: 1026 hPa 1019.2 hPa -
Precipitation: 0 mm    
Historical Graphs
 
 
Tabular Data for October 31, 2017
Time Temperature Dew Point Pressure Wind Wind Speed Wind Gust Humidity Rainfall Rate (Hourly) solar Conditions
00:02 8.6 °C 6.1 °C 1026 hPa West 8 km/h 11.3 km/h 84 % 0 mm 0 W/m2
00:07 8.7 °C 6.2 °C 1026 hPa WNW 6.4 km/h 11.3 km/h 84 % 0 mm 0 W/m2
00:12 8.7 °C 6 °C 1026 hPa West 4.8 km/h 9.7 km/h 83 % 0 mm 0 W/m2
00:17 8.7 °C 6 °C 1026 hPa Calm   3.2 km/h 83 % 0 mm 0 W/m2
00:22 8.8 °C 6.1 °C 1026 hPa West 1.6 km/h 6.4 km/h 83 % 0 mm 0 W/m2
00:27 8.8 °C 6.1 °C 1025.6 hPa Calm   1.6 km/h 83 % 0 mm 0 W/m2
00:32 8.8 °C 6.1 °C 1025.6 hPa Calm     83 % 0 mm 0 W/m2
00:37 8.8 °C 6.1 °C 1025.6 hPa Calm   1.6 km/h 83 % 0 mm 0 W/m2
00:42 8.8 °C 6.1 °C 1025.6 hPa Calm     83 % 0 mm 0 W/m2
00:47 8.8 °C 6.1 °C 1025.6 hPa Calm   1.6 km/h 83 % 0 mm 0 W/m2
00:52 8.8 °C 6.2 °C 1025.3 hPa Calm     84 % 0 mm 0 W/m2
00:58 8.8 °C 6.2 °C 1025.3 hPa Calm   1.6 km/h 84 % 0 mm 0 W/m2
01:03 8.8 °C 6.2 °C 1025.3 hPa Calm     84 % 0 mm 0 W/m2
01:08 8.8 °C 6.4 °C 1025.3 hPa Calm     85 % 0 mm 0 W/m2
01:13 8.8 °C 6.4 °C 1024.9 hPa Calm     85 % 0 mm 0 W/m2
01:18 8.7 °C 6.3 °C 1024.9 hPa Calm     85 % 0 mm 0 W/m2
01:28 8.7 °C 6.5 °C 1025.3 hPa Calm     86 % 0 mm 0 W/m2
01:33 8.6 °C 6.4 °C 1025.3 hPa Calm   1.6 km/h 86 % 0 mm 0 W/m2
01:38 8.6 °C 6.4 °C 1024.9 hPa Calm     86 % 0 mm 0 W/m2
01:43 8.6 °C 6.6 °C 1025.3 hPa Calm   1.6 km/h 87 % 0 mm 0 W/m2
01:48 8.6 °C 6.6 °C 1024.9 hPa Calm     87 % 0 mm 0 W/m2
01:53 8.6 °C 6.7 °C 1024.9 hPa Calm     88 % 0 mm 0 W/m2
01:58 8.5 °C 6.6 °C 1024.9 hPa Calm     88 % 0 mm 0 W/m2
01:59 8.4 °C 6.5 °C 1024.9 hPa Calm     88 % 0 mm 0 W/m2
02:04 8.4 °C 6.5 °C 1024.9 hPa Calm     88 % 0 mm 0 W/m2
02:09 8.3 °C 6.6 °C 1024.9 hPa Calm   1.6 km/h 89 % 0 mm 0 W/m2
02:14 8.3 °C 6.6 °C 1024.9 hPa Calm   1.6 km/h 89 % 0 mm 0 W/m2
02:19 8.2 °C 6.5 °C 1024.9 hPa Calm     89 % 0 mm 0 W/m2
02:29 8.2 °C 6.5 °C 1024.9 hPa Calm     89 % 0 mm 0 W/m2
02:35 8.1 °C 6.4 °C 1024.6 hPa Calm     89 % 0 mm 0 W/m2
02:40 8.1 °C 6.6 °C 1024.6 hPa Calm     90 % 0 mm 0 W/m2
02:45 8.1 °C 6.6 °C 1024.6 hPa Calm     90 % 0 mm 0 W/m2
02:50 8.1 °C 6.6 °C 1024.6 hPa Calm     90 % 0 mm 0 W/m2
02:55 8.1 °C 6.6 °C 1024.6 hPa Calm     90 % 0 mm 0 W/m2
03:00 8 °C 6.4 °C 1024.3 hPa Calm     90 % 0 mm 0 W/m2
03:05 8 °C 6.4 °C 1024.3 hPa Calm     90 % 0 mm 0 W/m2
03:10 8 °C 6.4 °C 1024.3 hPa Calm     90 % 0 mm 0 W/m2
03:15 8 °C 6.6 °C 1024.3 hPa Calm   1.6 km/h 91 % 0 mm 0 W/m2
03:22 8 °C 6.6 °C 1024.3 hPa Calm   1.6 km/h 91 % 0 mm 0 W/m2
03:23 8 °C 6.6 °C 1024.3 hPa Calm     91 % 0 mm 0 W/m2
03:26 8 °C 6.6 °C 1024.3 hPa Calm     91 % 0 mm 0 W/m2
03:30 8 °C 6.6 °C 1024.3 hPa Calm     91 % 0 mm 0 W/m2
03:34 8.1 °C 6.7 °C 1024.3 hPa Calm     91 % 0 mm 0 W/m2
03:45 8.1 °C 6.9 °C 1024.3 hPa Calm     92 % 0 mm 0 W/m2
03:50 8.1 °C 6.9 °C 1023.9 hPa Calm     92 % 0 mm 0 W/m2
03:55 8.1 °C 6.9 °C 1023.9 hPa Calm     92 % 0 mm 0 W/m2
04:00 8.1 °C 6.9 °C 1023.9 hPa Calm     92 % 0 mm 0 W/m2
04:05 8.1 °C 6.9 °C 1023.9 hPa Calm     92 % 0 mm 0 W/m2
04:10 8.1 °C 6.9 °C 1023.9 hPa Calm     92 % 0 mm 0 W/m2
04:15 8.1 °C 6.9 °C 1023.9 hPa Calm     92 % 0 mm 0 W/m2
04:20 8.1 °C 6.9 °C 1023.6 hPa Calm     92 % 0 mm 0 W/m2
04:25 8.1 °C 6.9 °C 1023.6 hPa Calm     92 % 0 mm 0 W/m2
04:30 8.1 °C 6.9 °C 1023.6 hPa Calm   1.6 km/h 92 % 0 mm 0 W/m2
04:35 8.1 °C 7.1 °C 1023.6 hPa Calm     93 % 0 mm 0 W/m2
04:40 8.1 °C 7.1 °C 1023.6 hPa Calm     93 % 0 mm 0 W/m2
04:45 8 °C 6.9 °C 1023.6 hPa Calm     93 % 0 mm 0 W/m2
04:50 8 °C 6.9 °C 1023.6 hPa Calm     93 % 0 mm 0 W/m2
04:55 7.9 °C 6.8 °C 1023.6 hPa Calm     93 % 0 mm 0 W/m2
05:05 7.9 °C 6.8 °C 1023.2 hPa Calm   1.6 km/h 93 % 0 mm 0 W/m2
05:10 7.9 °C 6.8 °C 1023.2 hPa Calm     93 % 0 mm 0 W/m2
05:15 7.9 °C 6.8 °C 1023.2 hPa Calm     93 % 0 mm 0 W/m2
05:20 7.9 °C 6.8 °C 1023.2 hPa Calm     93 % 0 mm 0 W/m2
05:25 7.9 °C 6.8 °C 1023.2 hPa Calm     93 % 0 mm 0 W/m2
05:30 7.9 °C 6.8 °C 1023.6 hPa Calm     93 % 0 mm 0 W/m2
05:35 7.8 °C 6.7 °C 1023.6 hPa WNW 1.6 km/h 12.9 km/h 93 % 0 mm 0 W/m2
05:40 7.9 °C 7 °C 1023.6 hPa Calm   3.2 km/h 94 % 0 mm 0 W/m2
05:45 7.9 °C 6.8 °C 1023.6 hPa Calm     93 % 0 mm 0 W/m2
05:50 7.9 °C 6.8 °C 1023.6 hPa Calm   3.2 km/h 93 % 0 mm 0 W/m2
05:55 7.8 °C 6.9 °C 1023.6 hPa West 1.6 km/h 4.8 km/h 94 % 0 mm 0 W/m2
06:00 7.7 °C 6.8 °C 1023.2 hPa Calm   1.6 km/h 94 % 0 mm 0 W/m2
06:05 7.6 °C 6.7 °C 1023.2 hPa Calm     94 % 0 mm 0 W/m2
06:10 7.6 °C 6.7 °C 1023.2 hPa Calm   1.6 km/h 94 % 0 mm 0 W/m2
06:15 7.7 °C 6.8 °C 1023.2 hPa WSW 3.2 km/h 9.7 km/h 94 % 0 mm 0 W/m2
06:20 8 °C 7.2 °C 1023.2 hPa WSW 3.2 km/h 8 km/h 95 % 0 mm 0 W/m2
06:25 8.2 °C 7.4 °C 1023.2 hPa SW 4.8 km/h 9.7 km/h 95 % 0 mm 0 W/m2
06:30 8.6 °C 7.8 °C 1022.9 hPa WSW 1.6 km/h 6.4 km/h 95 % 0 mm 0 W/m2
06:35 8.8 °C 8.1 °C 1022.9 hPa WSW 1.6 km/h 3.2 km/h 95 % 0 mm 0 W/m2
06:40 8.9 °C 8.2 °C 1022.9 hPa WSW 1.6 km/h 3.2 km/h 95 % 0 mm 0 W/m2
06:46 9 °C 8.2 °C 1022.9 hPa WSW 1.6 km/h 3.2 km/h 95 % 0 mm 0 W/m2
06:51 9 °C 8.2 °C 1022.9 hPa Calm     95 % 0 mm 0 W/m2
06:56 9.1 °C 8.3 °C 1022.9 hPa Calm     95 % 0 mm 0 W/m2
07:01 9.1 °C 8.2 °C 1022.9 hPa Calm   1.6 km/h 94 % 0 mm 0 W/m2
07:06 9.2 °C 8.3 °C 1022.9 hPa Calm   1.6 km/h 94 % 0 mm 0 W/m2
07:11 9.3 °C 8.4 °C 1022.9 hPa Calm     94 % 0 mm 0 W/m2
07:21 9.4 °C 8.5 °C 1022.9 hPa WSW 6.4 km/h 8 km/h 94 % 0 mm 9 W/m2
07:26 9.6 °C 8.7 °C 1022.9 hPa West 4.8 km/h 8 km/h 94 % 0 mm 12 W/m2
07:31 9.8 °C 8.9 °C 1022.9 hPa WSW 6.4 km/h 9.7 km/h 94 % 0 mm 19 W/m2
07:36 10 °C 9.1 °C 1022.9 hPa West 4.8 km/h 6.4 km/h 94 % 0 mm 32 W/m2
07:41 10.1 °C 9 °C 1022.9 hPa West 1.6 km/h 3.2 km/h 93 % 0 mm 32 W/m2
07:46 10.1 °C 9 °C 1022.6 hPa SW 3.2 km/h 8 km/h 93 % 0 mm 35 W/m2
07:51 10.2 °C 9.1 °C 1022.9 hPa SW 3.2 km/h 8 km/h 93 % 0 mm 39 W/m2
07:56 10.3 °C 9.2 °C 1022.6 hPa WSW 3.2 km/h 8 km/h 93 % 0 mm 39 W/m2
08:01 10.3 °C 9.2 °C 1022.6 hPa WSW 4.8 km/h 8 km/h 93 % 0 mm 32 W/m2
08:06 10.4 °C 9.2 °C 1022.6 hPa WSW 4.8 km/h 8 km/h 92 % 0 mm 35 W/m2
08:11 10.4 °C 9.2 °C 1022.9 hPa WSW 1.6 km/h 6.4 km/h 92 % 0 mm 42 W/m2
08:16 10.5 °C 9.3 °C 1022.9 hPa Calm   4.8 km/h 92 % 0 mm 46 W/m2
08:21 10.5 °C 9.3 °C 1022.9 hPa Calm   1.6 km/h 92 % 0 mm 44 W/m2
08:26 10.5 °C 9.3 °C 1022.9 hPa WSW 1.6 km/h 3.2 km/h 92 % 0 mm 47 W/m2
08:31 10.4 °C 9 °C 1022.9 hPa Calm   3.2 km/h 91 % 0 mm 58 W/m2
08:36 10.3 °C 8.9 °C 1022.9 hPa Calm   3.2 km/h 91 % 0 mm 76 W/m2
08:41 10.3 °C 8.9 °C 1022.9 hPa Calm   1.6 km/h 91 % 0 mm 86 W/m2
08:46 10.2 °C 8.8 °C 1022.6 hPa North 3.2 km/h 4.8 km/h 91 % 0 mm 79 W/m2
08:51 10.2 °C 8.8 °C 1022.9 hPa Calm   1.6 km/h 91 % 0 mm 67 W/m2
08:56 10.2 °C 8.8 °C 1022.6 hPa Calm   3.2 km/h 91 % 0 mm 69 W/m2
09:01 10.3 °C 8.9 °C 1022.6 hPa Calm     91 % 0 mm 77 W/m2
09:06 10.3 °C 8.9 °C 1022.6 hPa Calm   1.6 km/h 91 % 0 mm 81 W/m2
09:11 10.3 °C 8.9 °C 1022.6 hPa Calm     91 % 0 mm 81 W/m2
09:16 10.4 °C 9.2 °C 1022.6 hPa Calm   3.2 km/h 92 % 0 mm 81 W/m2
09:21 10.5 °C 9.3 °C 1022.2 hPa Calm     92 % 0 mm 90 W/m2
09:26 10.6 °C 9.3 °C 1022.6 hPa Calm     92 % 0 mm 100 W/m2
09:31 10.7 °C 9.4 °C 1022.6 hPa West 6.4 km/h 12.9 km/h 92 % 0 mm 113 W/m2
09:36 10.9 °C 9.7 °C 1022.6 hPa West 3.2 km/h 8 km/h 92 % 0 mm 118 W/m2
09:41 11.2 °C 9.9 °C 1022.6 hPa West 8 km/h 12.9 km/h 92 % 0 mm 127 W/m2
09:46 11.5 °C 10.1 °C 1022.6 hPa West 8 km/h 11.3 km/h 91 % 0 mm 125 W/m2
09:51 11.7 °C 10.3 °C 1022.6 hPa West 6.4 km/h 11.3 km/h 91 % 0 mm 114 W/m2
09:56 11.9 °C 10.3 °C 1022.6 hPa West 8 km/h 17.7 km/h 90 % 0 mm 123 W/m2
10:01 12.1 °C 10.3 °C 1022.6 hPa West 11.3 km/h 17.7 km/h 89 % 0 mm 121 W/m2
10:11 12.3 °C 10.2 °C 1022.9 hPa West 4.8 km/h 11.3 km/h 87 % 0 mm 120 W/m2
10:17 12.4 °C 10.3 °C 1022.9 hPa West 4.8 km/h 8 km/h 87 % 0 mm 149 W/m2
10:22 12.6 °C 10.3 °C 1022.6 hPa West 6.4 km/h 11.3 km/h 86 % 0 mm 151 W/m2
10:27 12.7 °C 10.4 °C 1022.6 hPa West 6.4 km/h 12.9 km/h 86 % 0 mm 105 W/m2
10:32 12.7 °C 10.4 °C 1022.6 hPa WSW 4.8 km/h 11.3 km/h 86 % 0 mm 109 W/m2
10:39 12.8 °C 10.3 °C 1022.6 hPa West 1.6 km/h 8 km/h 85 % 0 mm 104 W/m2
10:44 12.8 °C 10.3 °C 1022.6 hPa West 1.6 km/h 3.2 km/h 85 % 0 mm 107 W/m2
10:49 12.9 °C 10.4 °C 1022.2 hPa WNW 6.4 km/h 12.9 km/h 85 % 0 mm 120 W/m2
10:54 12.9 °C 10.3 °C 1022.2 hPa West 11.3 km/h 17.7 km/h 84 % 0 mm 132 W/m2
11:00 12.9 °C 10.4 °C 1021.9 hPa West 6.4 km/h 9.7 km/h 85 % 0 mm 148 W/m2
11:05 12.9 °C 10.3 °C 1022.2 hPa West 9.7 km/h 14.5 km/h 84 % 0 mm 153 W/m2
11:10 13 °C 10.3 °C 1022.2 hPa West 11.3 km/h 19.3 km/h 84 % 0 mm 155 W/m2
11:15 13.1 °C 10.4 °C 1021.9 hPa West 12.9 km/h 19.3 km/h 84 % 0 mm 158 W/m2
11:20 13.1 °C 10.4 °C 1022.2 hPa West 12.9 km/h 19.3 km/h 84 % 0 mm 162 W/m2
11:25 13.2 °C 10.6 °C 1022.2 hPa West 12.9 km/h 19.3 km/h 84 % 0 mm 162 W/m2
11:30 13.2 °C 10.6 °C 1021.9 hPa West 12.9 km/h 19.3 km/h 84 % 0 mm 153 W/m2
11:31 13.2 °C 10.4 °C 1022.2 hPa West 12.9 km/h 19.3 km/h 83 % 0 mm 153 W/m2
11:41 13.3 °C 10.7 °C 1021.9 hPa West 4.8 km/h 9.7 km/h 84 % 0 mm 137 W/m2
11:46 13.3 °C 10.7 °C 1021.6 hPa West 8 km/h 14.5 km/h 84 % 0 mm 135 W/m2
11:51 13.4 °C 10.6 °C 1021.6 hPa West 8 km/h 14.5 km/h 83 % 0 mm 132 W/m2
11:56 13.4 °C 10.6 °C 1021.6 hPa West 8 km/h 12.9 km/h 83 % 0 mm 130 W/m2
12:01 13.4 °C 10.6 °C 1021.6 hPa West 3.2 km/h 9.7 km/h 83 % 0 mm 134 W/m2
12:06 13.5 °C 10.5 °C 1021.6 hPa Calm   3.2 km/h 82 % 0 mm 144 W/m2
12:11 13.4 °C 10.6 °C 1021.6 hPa Calm   1.6 km/h 83 % 0 mm 151 W/m2
12:16 13.4 °C 10.6 °C 1021.2 hPa Calm     83 % 0 mm 155 W/m2
12:21 13.4 °C 10.8 °C 1021.6 hPa Calm     84 % 0 mm 156 W/m2
12:26 13.5 °C 10.7 °C 1021.6 hPa Calm     83 % 0 mm 155 W/m2
12:31 13.6 °C 10.8 °C 1021.6 hPa Calm     83 % 0 mm 149 W/m2
12:36 13.7 °C 10.9 °C 1021.6 hPa West 3.2 km/h 6.4 km/h 83 % 0 mm 144 W/m2
12:41 13.7 °C 10.9 °C 1021.9 hPa West 1.6 km/h 3.2 km/h 83 % 0 mm 144 W/m2
12:46 13.7 °C 10.9 °C 1021.9 hPa West 9.7 km/h 17.7 km/h 83 % 0 mm 142 W/m2
12:51 13.8 °C 10.8 °C 1021.6 hPa West 8 km/h 14.5 km/h 82 % 0 mm 139 W/m2
12:56 13.9 °C 10.9 °C 1021.6 hPa West 16.1 km/h 29 km/h 82 % 0 mm 134 W/m2
13:01 13.9 °C 10.7 °C 1021.6 hPa West 17.7 km/h 25.7 km/h 81 % 0 mm 132 W/m2
13:06 13.8 °C 10.6 °C 1021.6 hPa West 12.9 km/h 19.3 km/h 81 % 0 mm 141 W/m2
13:11 13.9 °C 10.7 °C 1021.6 hPa West 12.9 km/h 20.9 km/h 81 % 0 mm 146 W/m2
13:16 13.9 °C 10.7 °C 1021.6 hPa West 11.3 km/h 17.7 km/h 81 % 0 mm 148 W/m2
13:21 14 °C 10.8 °C 1021.2 hPa West 14.5 km/h 19.3 km/h 81 % 0 mm 144 W/m2
13:26 14 °C 10.8 °C 1021.2 hPa West 12.9 km/h 20.9 km/h 81 % 0 mm 148 W/m2
13:31 14.1 °C 10.9 °C 1021.2 hPa West 11.3 km/h 16.1 km/h 81 % 0 mm 148 W/m2
13:36 14.1 °C 10.9 °C 1021.2 hPa West 11.3 km/h 19.3 km/h 81 % 0 mm 146 W/m2
13:41 14.2 °C 11 °C 1021.2 hPa WNW 14.5 km/h 24.1 km/h 81 % 0 mm 142 W/m2
13:46 14.2 °C 11 °C 1021.2 hPa WNW 11.3 km/h 16.1 km/h 81 % 0 mm 130 W/m2
13:51 14.3 °C 11.1 °C 1021.2 hPa WNW 8 km/h 12.9 km/h 81 % 0 mm 121 W/m2
13:56 14.3 °C 11.1 °C 1021.2 hPa West 11.3 km/h 16.1 km/h 81 % 0 mm 109 W/m2
14:01 14.3 °C 11.1 °C 1021.2 hPa WNW 8 km/h 14.5 km/h 81 % 0 mm 102 W/m2
14:06 14.3 °C 11.1 °C 1021.2 hPa WNW 9.7 km/h 16.1 km/h 81 % 0 mm 95 W/m2
14:11 14.3 °C 10.9 °C 1020.9 hPa West 9.7 km/h 14.5 km/h 80 % 0 mm 90 W/m2
14:16 14.3 °C 10.9 °C 1021.2 hPa West 8 km/h 19.3 km/h 80 % 0 mm 91 W/m2
14:22 14.3 °C 10.9 °C 1020.9 hPa West 12.9 km/h 20.9 km/h 80 % 0 mm 90 W/m2
14:27 14.3 °C 10.9 °C 1020.9 hPa West 4.8 km/h 11.3 km/h 80 % 0 mm 81 W/m2
14:32 14.3 °C 10.9 °C 1020.9 hPa West 8 km/h 14.5 km/h 80 % 0 mm 70 W/m2
14:37 14.2 °C 11 °C 1020.9 hPa WSW 9.7 km/h 12.9 km/h 81 % 0 mm 72 W/m2
14:42 14.2 °C 11 °C 1020.5 hPa West 9.7 km/h 14.5 km/h 81 % 0 mm 70 W/m2
14:47 14.1 °C 10.9 °C 1020.5 hPa WSW 11.3 km/h 22.5 km/h 81 % 0 mm 72 W/m2
14:52 14 °C 10.8 °C 1020.2 hPa WSW 12.9 km/h 17.7 km/h 81 % 0 mm 86 W/m2
14:57 14 °C 10.8 °C 1020.2 hPa WSW 9.7 km/h 14.5 km/h 81 % 0 mm 77 W/m2
15:02 14 °C 10.8 °C 1020.5 hPa WSW 9.7 km/h 14.5 km/h 81 % 0 mm 65 W/m2
15:07 13.9 °C 10.7 °C 1020.2 hPa West 4.8 km/h 9.7 km/h 81 % 0 mm 60 W/m2
15:12 13.9 °C 10.9 °C 1020.2 hPa West 6.4 km/h 12.9 km/h 82 % 0 mm 54 W/m2
15:17 13.9 °C 10.9 °C 1020.5 hPa West 9.7 km/h 19.3 km/h 82 % 0 mm 46 W/m2
15:22 13.9 °C 10.9 °C 1020.5 hPa West 9.7 km/h 16.1 km/h 82 % 0 mm 44 W/m2
15:27 13.8 °C 10.8 °C 1020.2 hPa WSW 9.7 km/h 17.7 km/h 82 % 0 mm 40 W/m2
15:32 13.8 °C 10.8 °C 1020.2 hPa West 11.3 km/h 19.3 km/h 82 % 0 mm 37 W/m2
15:37 13.7 °C 10.7 °C 1020.5 hPa WNW 4.8 km/h 9.7 km/h 82 % 0 mm 35 W/m2
15:42 13.7 °C 10.7 °C 1020.2 hPa WNW 6.4 km/h 14.5 km/h 82 % 0 mm 32 W/m2
15:47 13.7 °C 10.7 °C 1020.2 hPa WNW 3.2 km/h 8 km/h 82 % 0 mm 28 W/m2
15:52 13.7 °C 10.9 °C 1020.2 hPa Calm   3.2 km/h 83 % 0 mm 25 W/m2
15:57 13.7 °C 10.9 °C 1020.2 hPa West 6.4 km/h 9.7 km/h 83 % 0 mm 21 W/m2
16:02 13.6 °C 10.6 °C 1020.5 hPa West 9.7 km/h 16.1 km/h 82 % 0 mm 18 W/m2
16:03 13.6 °C 10.6 °C 1020.5 hPa West 9.7 km/h 16.1 km/h 82 % 0 mm 18 W/m2
16:08 13.6 °C 10.6 °C 1020.5 hPa WNW 4.8 km/h 9.7 km/h 82 % 0 mm 14 W/m2
16:13 13.5 °C 10.5 °C 1020.5 hPa West 9.7 km/h 14.5 km/h 82 % 0 mm 11 W/m2
16:18 13.4 °C 10.4 °C 1020.5 hPa West 4.8 km/h 9.7 km/h 82 % 0 mm 7 W/m2
16:23 13.4 °C 10.4 °C 1020.2 hPa West 9.7 km/h 16.1 km/h 82 % 0 mm 5 W/m2
16:28 13.3 °C 10.5 °C 1020.2 hPa West 6.4 km/h 11.3 km/h 83 % 0 mm 0 W/m2
16:33 13.3 °C 10.5 °C 1020.2 hPa West 3.2 km/h 8 km/h 83 % 0 mm 0 W/m2
16:38 13.2 °C 10.4 °C 1020.2 hPa WSW 3.2 km/h 8 km/h 83 % 0 mm 0 W/m2
16:43 13.2 °C 10.2 °C 1020.2 hPa WNW 1.6 km/h 6.4 km/h 82 % 0 mm 0 W/m2
16:48 13.1 °C 10.1 °C 1020.2 hPa WSW 3.2 km/h 8 km/h 82 % 0 mm 0 W/m2
16:53 13.1 °C 10.1 °C 1020.2 hPa WSW 6.4 km/h 9.7 km/h 82 % 0 mm 0 W/m2
16:58 13 °C 10 °C 1020.2 hPa West 4.8 km/h 11.3 km/h 82 % 0 mm 0 W/m2
17:03 13 °C 10 °C 1020.2 hPa WSW 6.4 km/h 11.3 km/h 82 % 0 mm 0 W/m2
17:08 12.9 °C 9.9 °C 1020.2 hPa WSW 9.7 km/h 12.9 km/h 82 % 0 mm 0 W/m2
17:13 12.9 °C 9.9 °C 1019.9 hPa WSW 11.3 km/h 16.1 km/h 82 % 0 mm 0 W/m2
17:18 12.9 °C 9.9 °C 1019.9 hPa WSW 12.9 km/h 19.3 km/h 82 % 0 mm 0 W/m2
17:23 12.9 °C 9.9 °C 1019.9 hPa West 11.3 km/h 17.7 km/h 82 % 0 mm 0 W/m2
17:28 12.9 °C 9.9 °C 1019.9 hPa West 12.9 km/h 20.9 km/h 82 % 0 mm 0 W/m2
17:33 12.8 °C 9.8 °C 1019.9 hPa West 11.3 km/h 17.7 km/h 82 % 0 mm 0 W/m2
17:38 12.8 °C 9.8 °C 1020.2 hPa West 8 km/h 12.9 km/h 82 % 0 mm 0 W/m2
17:43 12.8 °C 9.8 °C 1020.2 hPa WNW 8 km/h 11.3 km/h 82 % 0 mm 0 W/m2
17:48 12.7 °C 9.7 °C 1020.2 hPa WNW 9.7 km/h 16.1 km/h 82 % 0 mm 0 W/m2
17:49 12.7 °C 9.9 °C 1020.2 hPa WNW 9.7 km/h 16.1 km/h 83 % 0 mm 0 W/m2
17:54 12.6 °C 9.8 °C 1020.2 hPa West 9.7 km/h 16.1 km/h 83 % 0 mm 0 W/m2
17:59 12.6 °C 9.8 °C 1020.2 hPa West 9.7 km/h 16.1 km/h 83 % 0 mm 0 W/m2
18:04 12.5 °C 9.9 °C 1020.2 hPa WNW 8 km/h 14.5 km/h 84 % 0 mm 0 W/m2
18:09 12.5 °C 9.9 °C 1020.2 hPa WNW 9.7 km/h 12.9 km/h 84 % 0 mm 0 W/m2
18:14 12.4 °C 9.8 °C 1020.2 hPa West 9.7 km/h 12.9 km/h 84 % 0 mm 0 W/m2
18:20 12.4 °C 9.6 °C 1020.2 hPa West 6.4 km/h 9.7 km/h 83 % 0 mm 0 W/m2
18:25 12.5 °C 9.7 °C 1020.2 hPa West 4.8 km/h 12.9 km/h 83 % 0 mm 0 W/m2
18:30 12.5 °C 9.7 °C 1020.2 hPa West 3.2 km/h 8 km/h 83 % 0 mm 0 W/m2
18:35 12.5 °C 9.7 °C 1020.2 hPa WSW 3.2 km/h 9.7 km/h 83 % 0 mm 0 W/m2
18:40 12.4 °C 9.6 °C 1020.2 hPa North 1.6 km/h 9.7 km/h 83 % 0 mm 0 W/m2
18:45 12.4 °C 9.6 °C 1020.2 hPa NW 1.6 km/h 3.2 km/h 83 % 0 mm 0 W/m2
18:50 12.4 °C 9.6 °C 1020.2 hPa WNW 3.2 km/h 11.3 km/h 83 % 0 mm 0 W/m2
18:55 12.3 °C 9.5 °C 1020.2 hPa SW 3.2 km/h 8 km/h 83 % 0 mm 0 W/m2
19:00 12.3 °C 9.5 °C 1020.2 hPa SW 6.4 km/h 9.7 km/h 83 % 0 mm 0 W/m2
19:05 12.4 °C 9.6 °C 1020.2 hPa WSW 6.4 km/h 14.5 km/h 83 % 0 mm 0 W/m2
19:10 12.4 °C 9.6 °C 1020.2 hPa West 6.4 km/h 12.9 km/h 83 % 0 mm 0 W/m2
19:15 12.4 °C 9.4 °C 1020.2 hPa WSW 8 km/h 12.9 km/h 82 % 0 mm 0 W/m2
19:20 12.4 °C 9.4 °C 1019.9 hPa West 8 km/h 11.3 km/h 82 % 0 mm 0 W/m2
19:25 12.4 °C 9.4 °C 1019.9 hPa West 8 km/h 12.9 km/h 82 % 0 mm 0 W/m2
19:30 12.4 °C 9.4 °C 1019.9 hPa West 4.8 km/h 9.7 km/h 82 % 0 mm 0 W/m2
19:35 12.3 °C 9.3 °C 1019.9 hPa WNW 6.4 km/h 14.5 km/h 82 % 0 mm 0 W/m2
19:40 12.3 °C 9.3 °C 1020.2 hPa WNW 6.4 km/h 9.7 km/h 82 % 0 mm 0 W/m2
19:45 12.2 °C 9.4 °C 1019.9 hPa WNW 4.8 km/h 11.3 km/h 83 % 0 mm 0 W/m2
19:50 12.1 °C 9.3 °C 1019.9 hPa WNW 4.8 km/h 9.7 km/h 83 % 0 mm 0 W/m2
19:51 12.1 °C 9.3 °C 1019.9 hPa WNW 3.2 km/h 9.7 km/h 83 % 0 mm 0 W/m2
19:56 12.1 °C 9.3 °C 1019.5 hPa West 9.7 km/h 16.1 km/h 83 % 0 mm 0 W/m2
20:01 12.1 °C 9.5 °C 1019.5 hPa West 6.4 km/h 11.3 km/h 84 % 0 mm 0 W/m2
20:06 12.1 °C 9.5 °C 1019.5 hPa West 1.6 km/h 4.8 km/h 84 % 0 mm 0 W/m2
20:11 12.1 °C 9.5 °C 1019.5 hPa SE 1.6 km/h 3.2 km/h 84 % 0 mm 0 W/m2
20:20 11.9 °C 9.3 °C 1019.5 hPa ESE 1.6 km/h 3.2 km/h 84 % 0 mm 0 W/m2
20:27 11.8 °C 9.2 °C 1019.5 hPa East 1.6 km/h 4.8 km/h 84 % 0 mm 0 W/m2
20:32 11.8 °C 9.2 °C 1019.5 hPa Calm   1.6 km/h 84 % 0 mm 0 W/m2
20:37 11.7 °C 9.1 °C 1019.5 hPa Calm     84 % 0 mm 0 W/m2
20:42 11.6 °C 9.2 °C 1019.9 hPa East 1.6 km/h 4.8 km/h 85 % 0 mm 0 W/m2
20:47 11.6 °C 9.2 °C 1019.9 hPa East 3.2 km/h 6.4 km/h 85 % 0 mm 0 W/m2
20:52 11.6 °C 9.2 °C 1019.9 hPa ENE 1.6 km/h 6.4 km/h 85 % 0 mm 0 W/m2
20:57 11.6 °C 9.2 °C 1019.9 hPa ENE 4.8 km/h 9.7 km/h 85 % 0 mm 0 W/m2
21:02 11.5 °C 9.1 °C 1019.9 hPa NE 6.4 km/h 9.7 km/h 85 % 0 mm 0 W/m2
21:07 11.5 °C 9.1 °C 1019.5 hPa NNE 4.8 km/h 8 km/h 85 % 0 mm 0 W/m2
21:12 11.5 °C 9.1 °C 1019.5 hPa NE 1.6 km/h 4.8 km/h 85 % 0 mm 0 W/m2
21:17 11.4 °C 9.2 °C 1019.5 hPa Calm     86 % 0 mm 0 W/m2
21:22 11.3 °C 9.1 °C 1019.5 hPa Calm   1.6 km/h 86 % 0 mm 0 W/m2
21:27 11.2 °C 8.9 °C 1019.9 hPa Calm     86 % 0 mm 0 W/m2
21:32 11.1 °C 8.8 °C 1019.5 hPa NNE 3.2 km/h 6.4 km/h 86 % 0 mm 0 W/m2
21:37 11.1 °C 9 °C 1019.5 hPa NNE 3.2 km/h 6.4 km/h 87 % 0 mm 0 W/m2
21:42 11.1 °C 9 °C 1019.5 hPa NNE 3.2 km/h 4.8 km/h 87 % 0 mm 0 W/m2
21:47 11.1 °C 9 °C 1019.5 hPa Calm   3.2 km/h 87 % 0 mm 0 W/m2
21:52 10.9 °C 8.8 °C 1019.5 hPa Calm     87 % 0 mm 0 W/m2
21:57 10.9 °C 8.8 °C 1019.5 hPa Calm     87 % 0 mm 0 W/m2
22:02 10.8 °C 8.7 °C 1019.5 hPa Calm     87 % 0 mm 0 W/m2
22:07 10.7 °C 8.6 °C 1019.5 hPa West 6.4 km/h 12.9 km/h 87 % 0 mm 0 W/m2
22:12 10.7 °C 8.8 °C 1019.5 hPa West 4.8 km/h 11.3 km/h 88 % 0 mm 0 W/m2
22:17 10.7 °C 8.8 °C 1019.5 hPa West 8 km/h 11.3 km/h 88 % 0 mm 0 W/m2
22:22 10.8 °C 8.9 °C 1019.5 hPa West 6.4 km/h 9.7 km/h 88 % 0 mm 0 W/m2
22:27 10.8 °C 8.7 °C 1019.5 hPa WNW 4.8 km/h 9.7 km/h 87 % 0 mm 0 W/m2
22:32 10.9 °C 8.8 °C 1019.5 hPa Calm   1.6 km/h 87 % 0 mm 0 W/m2
22:37 10.9 °C 8.8 °C 1019.2 hPa Calm     87 % 0 mm 0 W/m2
22:42 10.8 °C 8.7 °C 1019.5 hPa SW 4.8 km/h 9.7 km/h 87 % 0 mm 0 W/m2
22:47 10.7 °C 8.6 °C 1019.5 hPa Calm   1.6 km/h 87 % 0 mm 0 W/m2
22:52 10.6 °C 8.7 °C 1019.5 hPa Calm     88 % 0 mm 0 W/m2
22:57 10.6 °C 8.7 °C 1019.5 hPa Calm   1.6 km/h 88 % 0 mm 0 W/m2
23:02 10.6 °C 8.7 °C 1019.2 hPa Calm     88 % 0 mm 0 W/m2
23:07 10.5 °C 8.8 °C 1019.2 hPa Calm     89 % 0 mm 0 W/m2
23:13 10.5 °C 8.8 °C 1019.2 hPa Calm     89 % 0 mm 0 W/m2
23:18 10.4 °C 8.7 °C 1019.5 hPa Calm   1.6 km/h 89 % 0 mm 0 W/m2
23:23 10.4 °C 8.7 °C 1019.2 hPa Calm     89 % 0 mm 0 W/m2
23:28 10.3 °C 8.6 °C 1019.2 hPa Calm     89 % 0 mm 0 W/m2
23:33 10.3 °C 8.6 °C 1019.5 hPa WSW 1.6 km/h 3.2 km/h 89 % 0 mm 0 W/m2
23:38 10.2 °C 8.6 °C 1019.2 hPa Calm     90 % 0 mm 0 W/m2
23:43 10.2 °C 8.6 °C 1019.5 hPa Calm     90 % 0 mm 0 W/m2
23:48 10.1 °C 8.6 °C 1019.5 hPa Calm     90 % 0 mm 0 W/m2
23:53 10.1 °C 8.6 °C 1019.5 hPa Calm     90 % 0 mm 0 W/m2
23:58 10.1 °C 8.6 °C 1019.5 hPa Calm     90 % 0 mm 0 W/m2
Delerius-Weather
Compliments of Weather Underground - 2.25 mb

Data updates at regular intervals.